createdAt,value
2023-05-18T00:00:16.352Z,6.25
2023-05-18T00:01:19.628Z,5.57
2023-05-18T00:02:21.933Z,5.90
2023-05-18T00:03:24.972Z,5.47
2023-05-18T00:04:29.706Z,5.57
2023-05-18T00:05:34.239Z,5.82
2023-05-18T00:06:39.329Z,6.20
2023-05-18T00:07:41.746Z,5.88
2023-05-18T00:08:44.349Z,5.53
2023-05-18T00:09:47.102Z,5.55
2023-05-18T00:10:49.832Z,5.22
2023-05-18T00:11:55.539Z,5.30
2023-05-18T00:12:58.113Z,5.10
2023-05-18T00:14:00.501Z,4.95
2023-05-18T00:15:04.966Z,5.57
2023-05-18T00:16:07.865Z,5.30
2023-05-18T00:17:10.434Z,5.18
2023-05-18T00:18:12.819Z,4.90
2023-05-18T00:19:15.711Z,4.85
2023-05-18T00:20:22.057Z,5.07
2023-05-18T00:21:30.628Z,5.70
2023-05-18T00:22:33.052Z,6.13
2023-05-18T00:23:35.681Z,5.20
2023-05-18T00:24:37.863Z,6.07
2023-05-18T00:25:40.557Z,5.65
2023-05-18T00:26:51.965Z,6.38
2023-05-18T00:27:54.273Z,5.25
2023-05-18T00:28:56.812Z,5.10
2023-05-18T00:29:59.586Z,5.38
2023-05-18T00:31:02.120Z,4.88
2023-05-18T00:32:05.320Z,5.38
2023-05-18T00:33:07.624Z,5.07
2023-05-18T00:34:13.879Z,4.90
2023-05-18T00:35:16.446Z,4.72
2023-05-18T00:36:19.389Z,5.22
2023-05-18T00:37:21.951Z,4.90
2023-05-18T00:38:24.657Z,5.55
2023-05-18T00:39:26.963Z,5.13
2023-05-18T00:40:29.927Z,4.93
2023-05-18T00:41:33.159Z,5.45
2023-05-18T00:42:35.545Z,5.82
2023-05-18T00:43:41.587Z,5.03
2023-05-18T00:44:46.898Z,5.95
2023-05-18T00:45:49.232Z,5.40
2023-05-18T00:46:51.947Z,5.88
2023-05-18T00:47:54.876Z,5.65
2023-05-18T00:48:57.822Z,5.30
2023-05-18T00:50:00.129Z,5.70
2023-05-18T00:51:03.040Z,5.13
2023-05-18T00:52:06.063Z,5.72
2023-05-18T00:53:10.641Z,6.57
2023-05-18T00:54:13.820Z,5.50
2023-05-18T00:55:16.924Z,6.13
2023-05-18T00:56:20.255Z,5.60
2023-05-18T00:57:24.234Z,5.38
2023-05-18T00:58:26.968Z,5.95
2023-05-18T00:59:30.725Z,5.28
2023-05-18T01:00:34.054Z,5.22
2023-05-18T01:01:37.886Z,5.82
2023-05-18T01:02:45.896Z,5.50
2023-05-18T01:03:48.405Z,5.07
2023-05-18T01:04:52.906Z,5.18
2023-05-18T01:05:57.917Z,5.20
2023-05-18T01:07:06.788Z,5.15
2023-05-18T01:08:10.162Z,5.03
2023-05-18T01:09:14.378Z,5.57
2023-05-18T01:10:19.760Z,5.60
2023-05-18T01:11:40.622Z,5.25
2023-05-18T01:12:51.290Z,5.13
2023-05-18T01:14:06.410Z,4.90
2023-05-18T01:15:35.322Z,4.43
2023-05-18T01:17:06.981Z,4.35
2023-05-18T01:18:15.368Z,4.05
2023-05-18T01:19:54.737Z,5.10
2023-05-18T01:21:43.066Z,5.07
2023-05-18T01:23:10.423Z,4.65
2023-05-18T01:24:38.782Z,3.80
2023-05-18T01:25:55.661Z,3.95
2023-05-18T01:27:00.658Z,4.20
2023-05-18T01:28:08.737Z,4.28
2023-05-18T01:29:13.777Z,4.00
2023-05-18T01:30:19.489Z,3.75
2023-05-18T01:31:23.080Z,4.03
2023-05-18T01:32:25.636Z,3.80
2023-05-18T01:33:27.888Z,4.20
2023-05-18T01:34:30.399Z,3.30
2023-05-18T01:35:36.509Z,3.83
2023-05-18T01:36:38.870Z,4.03
2023-05-18T01:37:41.185Z,4.00
2023-05-18T01:38:45.254Z,4.00
2023-05-18T01:39:49.717Z,4.38
2023-05-18T01:41:13.933Z,4.05
2023-05-18T01:42:21.419Z,3.75
2023-05-18T01:43:29.840Z,3.35
2023-05-18T01:44:45.473Z,3.72
2023-05-18T01:45:51.470Z,3.95
2023-05-18T01:46:59.057Z,3.72
2023-05-18T01:48:05.021Z,3.63
2023-05-18T01:49:17.417Z,4.25
2023-05-18T01:50:26.934Z,3.67
2023-05-18T01:51:36.301Z,3.70
2023-05-18T01:52:45.415Z,4.43
2023-05-18T01:53:59.237Z,3.15
2023-05-18T01:55:03.541Z,3.97
2023-05-18T01:56:08.852Z,3.75
2023-05-18T01:57:12.332Z,3.50
2023-05-18T01:58:17.011Z,3.42
2023-05-18T01:59:19.656Z,3.50
2023-05-18T02:02:11.621Z,4.03
2023-05-18T02:03:14.832Z,3.78
2023-05-18T02:04:17.746Z,3.63
2023-05-18T02:05:20.817Z,3.78
2023-05-18T02:06:23.776Z,3.58
2023-05-18T02:07:26.400Z,3.58
2023-05-18T02:08:29.068Z,4.20
2023-05-18T02:09:31.348Z,3.60
2023-05-18T02:10:33.532Z,3.60
2023-05-18T02:11:35.942Z,3.95
2023-05-18T02:12:38.454Z,4.00
2023-05-18T02:13:40.897Z,3.63
2023-05-18T02:14:43.352Z,3.72
2023-05-18T02:15:45.642Z,3.70
2023-05-18T02:16:52.738Z,4.03
2023-05-18T02:17:58.216Z,4.03
2023-05-18T02:19:00.710Z,3.58
2023-05-18T02:20:06.821Z,3.38
2023-05-18T02:21:10.083Z,3.67
2023-05-18T02:22:12.340Z,4.22
2023-05-18T02:23:15.773Z,3.65
2023-05-18T02:24:18.328Z,4.05
2023-05-18T02:25:21.095Z,3.70
2023-05-18T02:26:23.892Z,3.40
2023-05-18T02:27:28.282Z,3.65
2023-05-18T02:28:30.794Z,4.10
2023-05-18T02:29:33.020Z,3.15
2023-05-18T02:30:35.496Z,3.60
2023-05-18T02:31:38.510Z,3.50
2023-05-18T02:32:42.543Z,3.58
2023-05-18T02:33:44.775Z,3.50
2023-05-18T02:34:47.154Z,3.58
2023-05-18T02:35:49.395Z,3.40
2023-05-18T02:36:51.751Z,3.80
2023-05-18T02:37:55.839Z,3.33
2023-05-18T02:39:00.047Z,3.67
2023-05-18T02:40:02.294Z,4.45
2023-05-18T02:41:05.649Z,3.63
2023-05-18T02:42:07.926Z,3.83
2023-05-18T02:43:10.282Z,3.88
2023-05-18T02:44:12.949Z,3.70
2023-05-18T02:45:15.218Z,3.63
2023-05-18T02:46:20.791Z,3.90
2023-05-18T02:47:23.151Z,3.42
2023-05-18T02:48:26.576Z,3.97
2023-05-18T02:49:28.909Z,3.55
2023-05-18T02:50:31.154Z,3.47
2023-05-18T02:51:33.766Z,4.07
2023-05-18T02:52:36.889Z,4.15
2023-05-18T02:53:40.094Z,4.05
2023-05-18T02:54:46.474Z,3.50
2023-05-18T02:55:57.097Z,3.72
2023-05-18T02:57:05.106Z,3.75
2023-05-18T02:58:31.074Z,3.50
2023-05-18T02:59:43.665Z,3.28
2023-05-18T03:00:48.884Z,3.35
2023-05-18T03:01:51.333Z,3.28
2023-05-18T03:02:57.576Z,3.80
2023-05-18T03:04:00.450Z,3.83
2023-05-18T03:05:03.424Z,3.97
2023-05-18T03:06:06.151Z,3.80
2023-05-18T03:07:10.504Z,3.75
2023-05-18T03:08:14.256Z,3.53
2023-05-18T03:09:16.684Z,3.75
2023-05-18T03:10:23.402Z,3.35
2023-05-18T03:11:28.662Z,3.35
2023-05-18T03:12:30.902Z,3.47
2023-05-18T03:13:33.111Z,3.13
2023-05-18T03:14:35.762Z,3.78
2023-05-18T03:15:39.529Z,3.65
2023-05-18T03:16:41.985Z,3.10
2023-05-18T03:17:49.586Z,4.00
2023-05-18T03:18:51.977Z,4.30
2023-05-18T03:19:54.464Z,3.25
2023-05-18T03:21:02.170Z,4.28
2023-05-18T03:22:05.818Z,3.90
2023-05-18T03:23:08.153Z,3.00
2023-05-18T03:24:14.527Z,4.20
2023-05-18T03:25:17.856Z,3.10
2023-05-18T03:26:20.204Z,3.35
2023-05-18T03:27:26.722Z,3.90
2023-05-18T03:28:29.846Z,3.55
2023-05-18T03:29:34.263Z,3.42
2023-05-18T03:30:38.635Z,3.20
2023-05-18T03:31:41.815Z,3.40
2023-05-18T03:32:48.824Z,3.67
2023-05-18T03:33:52.046Z,2.70
2023-05-18T03:34:55.025Z,3.72
2023-05-18T03:35:59.153Z,3.25
2023-05-18T03:37:02.007Z,3.00
2023-05-18T03:38:05.178Z,3.88
2023-05-18T03:39:08.463Z,3.67
2023-05-18T03:40:15.569Z,3.13
2023-05-18T03:41:19.483Z,3.00
2023-05-18T03:42:21.754Z,3.50
2023-05-18T03:43:29.382Z,3.17
2023-05-18T03:44:31.833Z,3.03
2023-05-18T03:45:34.073Z,3.35
2023-05-18T03:46:36.518Z,3.35
2023-05-18T03:47:39.797Z,3.05
2023-05-18T03:48:42.317Z,3.03
2023-05-18T03:49:44.670Z,3.70
2023-05-18T03:50:47.227Z,3.95
2023-05-18T03:51:49.685Z,3.35
2023-05-18T03:52:52.987Z,3.72
2023-05-18T03:53:55.272Z,3.47
2023-05-18T03:54:57.543Z,4.03
2023-05-18T03:55:59.777Z,3.42
2023-05-18T03:57:02.279Z,3.50
2023-05-18T03:58:05.407Z,3.47
2023-05-18T03:59:08.092Z,4.07
2023-05-18T04:00:13.293Z,3.35
2023-05-18T04:01:23.672Z,3.63
2023-05-18T04:02:26.503Z,3.45
2023-05-18T04:03:30.520Z,3.28
2023-05-18T04:04:33.276Z,3.53
2023-05-18T04:05:35.584Z,3.17
2023-05-18T04:06:40.099Z,3.30
2023-05-18T04:07:46.714Z,4.22
2023-05-18T04:08:49.384Z,3.38
2023-05-18T04:09:54.349Z,3.60
2023-05-18T04:10:56.656Z,3.65
2023-05-18T04:11:58.827Z,3.22
2023-05-18T04:13:01.365Z,2.83
2023-05-18T04:14:03.588Z,3.42
2023-05-18T04:15:06.678Z,3.58
2023-05-18T04:16:13.448Z,3.60
2023-05-18T04:17:17.420Z,3.20
2023-05-18T04:18:19.835Z,3.38
2023-05-18T04:19:22.478Z,3.90
2023-05-18T04:20:28.162Z,3.10
2023-05-18T04:21:35.323Z,3.85
2023-05-18T04:22:43.263Z,3.13
2023-05-18T04:23:47.176Z,3.50
2023-05-18T04:24:50.502Z,3.75
2023-05-18T04:25:52.810Z,3.42
2023-05-18T04:26:56.034Z,4.10
2023-05-18T04:27:58.694Z,3.67
2023-05-18T04:29:01.012Z,3.60
2023-05-18T04:30:03.445Z,3.13
2023-05-18T04:31:06.506Z,3.22
2023-05-18T04:32:10.679Z,3.17
2023-05-18T04:33:16.067Z,3.65
2023-05-18T04:34:20.070Z,3.35
2023-05-18T04:35:22.998Z,3.17
2023-05-18T04:36:26.084Z,3.85
2023-05-18T04:37:28.603Z,3.33
2023-05-18T04:38:32.514Z,3.28
2023-05-18T04:39:35.133Z,3.17
2023-05-18T04:40:43.369Z,3.42
2023-05-18T04:41:48.279Z,3.45
2023-05-18T04:42:50.727Z,3.00
2023-05-18T04:43:56.138Z,3.20
2023-05-18T04:45:00.177Z,3.17
2023-05-18T04:46:03.465Z,3.50
2023-05-18T04:47:08.459Z,2.88
2023-05-18T04:48:11.394Z,3.20
2023-05-18T04:49:14.685Z,3.50
2023-05-18T04:50:18.348Z,3.72
2023-05-18T04:51:21.876Z,3.15
2023-05-18T04:52:24.740Z,3.00
2023-05-18T04:53:27.518Z,3.13
2023-05-18T04:54:32.860Z,3.30
2023-05-18T04:55:35.552Z,3.20
2023-05-18T04:56:47.289Z,3.40
2023-05-18T04:57:50.496Z,3.38
2023-05-18T04:58:52.739Z,3.20
2023-05-18T04:59:55.010Z,3.13
2023-05-18T05:00:58.219Z,3.65
2023-05-18T05:02:00.526Z,3.38
2023-05-18T05:03:02.902Z,2.90
2023-05-18T05:04:06.343Z,3.05
2023-05-18T05:05:08.989Z,3.22
2023-05-18T05:06:11.682Z,2.97
2023-05-18T05:07:13.949Z,3.35
2023-05-18T05:08:20.201Z,3.38
2023-05-18T05:09:22.518Z,3.00
2023-05-18T05:10:24.831Z,3.22
2023-05-18T05:11:27.153Z,3.22
2023-05-18T05:12:29.584Z,3.85
2023-05-18T05:13:31.959Z,3.22
2023-05-18T05:14:34.285Z,2.72
2023-05-18T05:15:37.038Z,3.35
2023-05-18T05:16:39.622Z,3.05
2023-05-18T05:17:42.135Z,3.40
2023-05-18T05:18:47.097Z,3.08
2023-05-18T05:19:49.862Z,3.05
2023-05-18T05:20:52.122Z,3.85
2023-05-18T05:21:54.448Z,3.25
2023-05-18T05:22:56.945Z,3.10
2023-05-18T05:24:06.093Z,3.38
2023-05-18T05:25:08.857Z,3.05
2023-05-18T05:26:11.375Z,3.10
2023-05-18T05:27:13.737Z,3.58
2023-05-18T05:28:16.050Z,2.83
2023-05-18T05:29:19.864Z,3.20
2023-05-18T05:30:22.190Z,3.30
2023-05-18T05:31:24.513Z,3.13
2023-05-18T05:32:27.231Z,3.40
2023-05-18T05:33:30.623Z,3.22
2023-05-18T05:34:32.877Z,2.92
2023-05-18T05:35:36.806Z,3.28
2023-05-18T05:36:39.453Z,3.58
2023-05-18T05:37:42.394Z,2.80
2023-05-18T05:38:45.169Z,3.35
2023-05-18T05:39:47.758Z,3.30
2023-05-18T05:40:52.652Z,3.25
2023-05-18T05:41:56.194Z,3.22
2023-05-18T05:42:58.526Z,2.80
2023-05-18T05:44:00.823Z,3.22
2023-05-18T05:45:03.493Z,3.22
2023-05-18T05:46:08.761Z,3.50
2023-05-18T05:47:11.280Z,3.20
2023-05-18T05:48:13.978Z,3.58
2023-05-18T05:49:16.611Z,2.70
2023-05-18T05:50:19.102Z,2.75
2023-05-18T05:51:23.285Z,3.10
2023-05-18T05:52:28.615Z,3.35
2023-05-18T05:53:30.911Z,3.00
2023-05-18T05:54:33.242Z,3.45
2023-05-18T05:55:41.157Z,2.53
2023-05-18T05:56:47.372Z,2.88
2023-05-18T05:57:51.504Z,3.47
2023-05-18T05:58:53.705Z,3.28
2023-05-18T05:59:56.309Z,3.05
2023-05-18T06:00:58.627Z,2.97
2023-05-18T06:02:00.897Z,2.90
2023-05-18T06:03:03.679Z,2.90
2023-05-18T06:04:18.220Z,3.15
2023-05-18T06:05:21.398Z,3.15
2023-05-18T06:06:24.040Z,3.10
2023-05-18T06:07:26.330Z,3.10
2023-05-18T06:08:28.567Z,3.50
2023-05-18T06:09:32.018Z,3.05
2023-05-18T06:10:34.413Z,3.13
2023-05-18T06:11:36.855Z,3.65
2023-05-18T06:12:39.208Z,2.88
2023-05-18T06:13:41.504Z,3.35
2023-05-18T06:14:43.934Z,3.40
2023-05-18T06:15:46.365Z,3.13
2023-05-18T06:16:48.752Z,3.20
2023-05-18T06:17:51.155Z,3.40
2023-05-18T06:18:53.571Z,3.00
2023-05-18T06:19:56.297Z,3.63
2023-05-18T06:20:58.803Z,3.72
2023-05-18T06:22:01.912Z,3.20
2023-05-18T06:23:08.743Z,3.22
2023-05-18T06:24:28.739Z,2.90
2023-05-18T06:25:50.083Z,3.35
2023-05-18T06:26:59.525Z,2.92
2023-05-18T06:28:24.398Z,3.03
2023-05-18T06:29:34.045Z,3.33
2023-05-18T06:31:14.719Z,2.42
2023-05-18T06:32:37.476Z,2.95
2023-05-18T06:33:40.034Z,3.10
2023-05-18T06:34:45.608Z,3.10
2023-05-18T06:35:48.315Z,3.40
2023-05-18T06:36:50.797Z,3.08
2023-05-18T06:37:53.213Z,3.35
2023-05-18T06:38:55.515Z,2.92
2023-05-18T06:39:58.537Z,3.50
2023-05-18T06:41:00.872Z,3.33
2023-05-18T06:42:03.307Z,3.10
2023-05-18T06:43:08.842Z,2.78
2023-05-18T06:44:21.562Z,3.03
2023-05-18T06:45:39.956Z,3.35
2023-05-18T06:46:50.546Z,3.58
2023-05-18T06:48:01.057Z,3.25
2023-05-18T06:49:05.105Z,3.25
2023-05-18T06:50:07.511Z,2.90
2023-05-18T06:51:09.992Z,2.88
2023-05-18T06:52:13.741Z,2.70
2023-05-18T06:53:17.956Z,2.40
2023-05-18T06:54:20.548Z,3.38
2023-05-18T06:55:23.607Z,3.25
2023-05-18T06:56:26.643Z,3.22
2023-05-18T06:57:30.134Z,2.95
2023-05-18T06:58:33.190Z,2.92
2023-05-18T06:59:39.053Z,2.72
2023-05-18T07:00:42.579Z,2.90
2023-05-18T07:01:46.158Z,3.15
2023-05-18T07:02:50.752Z,3.30
2023-05-18T07:03:53.859Z,3.50
2023-05-18T07:04:56.067Z,3.00
2023-05-18T07:05:58.797Z,3.38
2023-05-18T07:07:01.459Z,2.80
2023-05-18T07:08:05.061Z,3.05
2023-05-18T07:09:08.880Z,3.33
2023-05-18T07:10:11.423Z,2.75
2023-05-18T07:11:13.942Z,3.50
2023-05-18T07:12:16.409Z,3.05
2023-05-18T07:13:19.714Z,2.83
2023-05-18T07:14:22.050Z,3.30
2023-05-18T07:15:25.994Z,3.65
2023-05-18T07:16:28.338Z,3.13
2023-05-18T07:17:31.283Z,3.03
2023-05-18T07:18:34.001Z,2.63
2023-05-18T07:19:36.260Z,3.08
2023-05-18T07:20:38.603Z,3.05
2023-05-18T07:21:41.089Z,3.15
2023-05-18T07:22:43.356Z,2.85
2023-05-18T07:23:45.657Z,2.80
2023-05-18T07:24:47.848Z,2.80
2023-05-18T07:25:50.288Z,2.72
2023-05-18T07:26:52.617Z,3.20
2023-05-18T07:27:55.615Z,2.97
2023-05-18T07:28:57.910Z,3.05
2023-05-18T07:30:00.187Z,3.22
2023-05-18T07:31:02.546Z,3.00
2023-05-18T07:32:05.002Z,3.15
2023-05-18T07:33:07.441Z,3.13
2023-05-18T07:34:09.757Z,2.95
2023-05-18T07:35:12.176Z,3.45
2023-05-18T07:36:14.860Z,2.95
2023-05-18T07:37:17.284Z,2.88
2023-05-18T07:38:19.584Z,3.03
2023-05-18T07:39:28.422Z,2.72
2023-05-18T07:40:30.848Z,3.22
2023-05-18T07:41:33.143Z,3.20
2023-05-18T07:42:35.600Z,3.17
2023-05-18T07:43:37.877Z,3.20
2023-05-18T07:44:40.292Z,3.60
2023-05-18T07:45:42.569Z,3.80
2023-05-18T07:46:44.855Z,3.13
2023-05-18T07:47:47.263Z,3.60
2023-05-18T07:48:49.548Z,3.78
2023-05-18T07:49:51.805Z,2.95
2023-05-18T07:50:54.053Z,3.97
2023-05-18T07:51:57.101Z,3.38
2023-05-18T07:52:59.434Z,3.38
2023-05-18T07:54:01.947Z,3.28
2023-05-18T07:55:04.685Z,3.15
2023-05-18T07:56:08.519Z,2.85
2023-05-18T07:57:10.913Z,4.20
2023-05-18T07:58:13.373Z,3.35
2023-05-18T07:59:16.017Z,3.45
2023-05-18T08:00:19.120Z,4.28
2023-05-18T08:01:22.150Z,2.97
2023-05-18T08:02:24.757Z,3.08
2023-05-18T08:03:27.301Z,3.30
2023-05-18T08:04:29.645Z,3.65
2023-05-18T08:05:32.368Z,3.50
2023-05-18T08:06:34.773Z,3.45
2023-05-18T08:07:37.382Z,3.63
2023-05-18T08:08:39.664Z,3.17
2023-05-18T08:09:42.044Z,3.55
2023-05-18T08:10:44.665Z,3.13
2023-05-18T08:11:46.940Z,3.38
2023-05-18T08:12:49.200Z,3.33
2023-05-18T08:13:51.472Z,3.47
2023-05-18T08:14:53.790Z,3.22
2023-05-18T08:16:10.449Z,3.28
2023-05-18T08:17:14.326Z,3.58
2023-05-18T08:18:16.647Z,3.92
2023-05-18T08:19:19.408Z,3.45
2023-05-18T08:20:21.952Z,3.30
2023-05-18T08:21:24.242Z,3.33
2023-05-18T08:22:26.592Z,4.03
2023-05-18T08:23:28.865Z,3.65
2023-05-18T08:24:31.860Z,3.35
2023-05-18T08:25:34.163Z,3.70
2023-05-18T08:26:36.503Z,3.67
2023-05-18T08:27:38.857Z,3.55
2023-05-18T08:28:41.302Z,3.15
2023-05-18T08:29:43.620Z,3.33
2023-05-18T08:30:45.845Z,3.60
2023-05-18T08:31:49.725Z,3.78
2023-05-18T08:32:52.210Z,3.38
2023-05-18T08:33:54.500Z,3.22
2023-05-18T08:34:56.706Z,3.35
2023-05-18T08:35:59.043Z,3.00
2023-05-18T08:37:01.364Z,3.60
2023-05-18T08:38:05.571Z,3.33
2023-05-18T08:39:08.734Z,3.42
2023-05-18T08:40:12.835Z,3.80
2023-05-18T08:41:26.385Z,3.35
2023-05-18T08:42:38.077Z,3.58
2023-05-18T08:43:57.719Z,3.03
2023-05-18T08:45:15.004Z,2.97
2023-05-18T08:46:21.479Z,3.30
2023-05-18T08:47:26.615Z,3.20
2023-05-18T08:48:32.027Z,3.53
2023-05-18T08:49:35.107Z,3.33
2023-05-18T08:50:38.095Z,3.63
2023-05-18T08:51:41.712Z,3.10
2023-05-18T08:52:48.411Z,3.58
2023-05-18T08:53:54.272Z,3.53
2023-05-18T08:55:00.184Z,3.50
2023-05-18T08:56:03.292Z,3.30
2023-05-18T08:57:11.557Z,3.25
2023-05-18T08:58:17.754Z,3.05
2023-05-18T08:59:23.724Z,3.30
2023-05-18T09:00:26.123Z,3.00
2023-05-18T09:01:29.639Z,3.20
2023-05-18T09:02:33.565Z,3.03
2023-05-18T09:03:37.813Z,3.08
2023-05-18T09:04:40.985Z,3.22
2023-05-18T09:05:43.381Z,3.17
2023-05-18T09:06:48.171Z,3.45
2023-05-18T09:07:51.328Z,3.00
2023-05-18T09:08:54.804Z,3.08
2023-05-18T09:09:58.168Z,3.67
2023-05-18T09:11:02.755Z,3.40
2023-05-18T09:12:06.531Z,3.70
2023-05-18T09:13:09.988Z,3.35
2023-05-18T09:14:12.736Z,3.50
2023-05-18T09:15:17.382Z,3.40
2023-05-18T09:16:19.655Z,3.25
2023-05-18T09:17:23.839Z,3.40
2023-05-18T09:18:28.200Z,3.17
2023-05-18T09:19:30.830Z,2.95
2023-05-18T09:20:33.206Z,3.85
2023-05-18T09:21:35.765Z,3.72
2023-05-18T09:22:41.186Z,3.75
2023-05-18T09:23:44.802Z,3.65
2023-05-18T09:24:48.918Z,3.25
2023-05-18T09:25:52.610Z,3.00
2023-05-18T09:26:54.884Z,3.25
2023-05-18T09:27:57.158Z,3.60
2023-05-18T09:28:59.786Z,3.83
2023-05-18T09:30:02.189Z,3.45
2023-05-18T09:31:07.833Z,3.78
2023-05-18T09:32:10.886Z,3.70
2023-05-18T09:33:17.946Z,3.10
2023-05-18T09:34:21.159Z,3.33
2023-05-18T09:35:24.844Z,3.60
2023-05-18T09:36:29.252Z,3.38
2023-05-18T09:37:32.811Z,3.42
2023-05-18T09:38:39.195Z,3.75
2023-05-18T09:39:42.067Z,3.25
2023-05-18T09:40:45.920Z,3.53
2023-05-18T09:41:56.316Z,3.08
2023-05-18T09:42:58.588Z,3.90
2023-05-18T09:44:05.098Z,3.47
2023-05-18T09:45:18.109Z,3.75
2023-05-18T09:46:21.043Z,3.50
2023-05-18T09:47:23.475Z,3.70
2023-05-18T09:48:26.846Z,2.97
2023-05-18T09:49:29.728Z,3.55
2023-05-18T09:50:31.886Z,3.60
2023-05-18T09:51:37.999Z,3.55
2023-05-18T09:52:44.767Z,3.20
2023-05-18T09:53:57.308Z,3.63
2023-05-18T09:55:04.514Z,4.13
2023-05-18T09:56:11.792Z,3.75
2023-05-18T09:57:14.107Z,3.75
2023-05-18T09:58:16.808Z,3.05
2023-05-18T09:59:19.014Z,3.00
2023-05-18T10:00:23.552Z,3.58
2023-05-18T10:01:27.416Z,2.80
2023-05-18T10:02:31.023Z,3.47
2023-05-18T10:03:40.251Z,3.58
2023-05-18T10:04:43.867Z,3.90
2023-05-18T10:05:46.377Z,3.22
2023-05-18T10:06:50.118Z,3.17
2023-05-18T10:07:52.829Z,3.35
2023-05-18T10:08:58.002Z,3.10
2023-05-18T10:10:03.474Z,3.15
2023-05-18T10:11:06.560Z,3.42
2023-05-18T10:12:17.514Z,3.13
2023-05-18T10:13:20.750Z,3.22
2023-05-18T10:14:31.343Z,3.08
2023-05-18T10:15:35.715Z,4.10
2023-05-18T10:16:38.158Z,3.30
2023-05-18T10:17:43.306Z,3.60
2023-05-18T10:18:46.910Z,3.60
2023-05-18T10:19:51.622Z,3.30
2023-05-18T10:20:57.274Z,3.25
2023-05-18T10:22:06.023Z,3.50
2023-05-18T10:23:11.316Z,3.55
2023-05-18T10:24:18.325Z,3.33
2023-05-18T10:25:25.316Z,3.30
2023-05-18T10:26:30.023Z,3.33
2023-05-18T10:27:36.140Z,3.15
2023-05-18T10:28:42.469Z,3.47
2023-05-18T10:29:46.511Z,3.10
2023-05-18T10:30:48.976Z,3.00
2023-05-18T10:31:53.942Z,3.45
2023-05-18T10:33:00.283Z,3.65
2023-05-18T10:34:03.913Z,3.25
2023-05-18T10:35:08.213Z,3.35
2023-05-18T10:36:12.616Z,3.47
2023-05-18T10:37:16.687Z,4.05
2023-05-18T10:38:27.007Z,3.65
2023-05-18T10:39:31.822Z,3.00
2023-05-18T10:40:36.156Z,2.88
2023-05-18T10:41:41.432Z,3.28
2023-05-18T10:42:46.026Z,3.67
2023-05-18T10:43:49.563Z,3.55
2023-05-18T10:44:53.180Z,2.88
2023-05-18T10:46:02.440Z,3.08
2023-05-18T10:47:11.512Z,3.25
2023-05-18T10:48:15.292Z,3.40
2023-05-18T10:49:19.807Z,3.25
2023-05-18T10:50:26.408Z,2.60
2023-05-18T10:51:31.413Z,3.45
2023-05-18T10:52:41.582Z,3.58
2023-05-18T10:53:47.593Z,3.22
2023-05-18T10:54:50.176Z,3.25
2023-05-18T10:55:54.422Z,3.20
2023-05-18T10:56:57.000Z,3.47
2023-05-18T10:58:05.608Z,3.50
2023-05-18T10:59:08.401Z,3.38
2023-05-18T11:00:13.414Z,3.10
2023-05-18T11:01:16.379Z,3.13
2023-05-18T11:02:20.472Z,3.28
2023-05-18T11:03:25.635Z,2.92
2023-05-18T11:04:30.013Z,2.80
2023-05-18T11:05:32.313Z,3.42
2023-05-18T11:06:35.501Z,3.00
2023-05-18T11:07:38.307Z,3.72
2023-05-18T11:08:50.417Z,2.95
2023-05-18T11:09:52.683Z,4.85
2023-05-18T11:11:07.577Z,3.53
2023-05-18T11:12:14.254Z,2.95
2023-05-18T11:13:16.786Z,2.50
2023-05-18T11:14:29.274Z,2.63
2023-05-18T11:17:26.709Z,2.80
2023-05-18T11:18:49.804Z,2.70
2023-05-18T11:20:04.586Z,3.00
2023-05-18T11:21:30.177Z,2.72
2023-05-18T11:22:51.771Z,3.00
2023-05-18T11:24:24.964Z,3.75
2023-05-18T11:25:27.046Z,3.20
2023-05-18T11:26:29.877Z,3.03
2023-05-18T11:27:32.769Z,2.90
2023-05-18T11:28:43.296Z,3.30
2023-05-18T11:29:46.466Z,3.17
2023-05-18T11:30:50.402Z,3.05
2023-05-18T11:31:54.472Z,3.92
2023-05-18T11:33:17.642Z,2.85
2023-05-18T11:34:49.504Z,3.05
2023-05-18T11:35:57.950Z,3.05
2023-05-18T11:37:00.493Z,3.00
2023-05-18T11:38:08.838Z,3.03
2023-05-18T11:39:11.437Z,3.00
2023-05-18T11:40:47.666Z,3.03
2023-05-18T11:42:02.574Z,2.92
2023-05-18T11:43:04.748Z,3.20
2023-05-18T11:44:13.958Z,3.40
2023-05-18T11:45:17.179Z,3.35
2023-05-18T11:46:21.368Z,3.08
2023-05-18T11:47:33.646Z,2.55
2023-05-18T11:48:44.332Z,3.08
2023-05-18T11:49:47.993Z,2.53
2023-05-18T11:50:54.855Z,2.75
2023-05-18T11:52:21.387Z,3.13
2023-05-18T11:53:25.705Z,2.75
2023-05-18T11:54:28.574Z,2.55
2023-05-18T11:55:41.506Z,2.78
2023-05-18T11:56:44.109Z,2.30
2023-05-18T11:57:54.692Z,2.72
2023-05-18T11:59:13.394Z,2.42
2023-05-18T12:00:17.057Z,2.90
2023-05-18T12:01:19.288Z,2.70
2023-05-18T12:02:24.521Z,2.80
2023-05-18T12:03:27.004Z,3.15
2023-05-18T12:04:30.044Z,3.15
2023-05-18T12:05:34.469Z,2.97
2023-05-18T12:06:38.220Z,2.90
2023-05-18T12:07:41.388Z,3.17
2023-05-18T12:08:44.928Z,2.50
2023-05-18T12:09:48.607Z,3.22
2023-05-18T12:10:50.840Z,2.65
2023-05-18T12:11:53.060Z,2.55
2023-05-18T12:12:57.101Z,3.25
2023-05-18T12:13:59.887Z,2.90
2023-05-18T12:15:07.425Z,3.22
2023-05-18T12:16:11.522Z,2.55
2023-05-18T12:17:14.044Z,3.00
2023-05-18T12:18:18.825Z,2.65
2023-05-18T12:19:22.592Z,2.80
2023-05-18T12:20:25.387Z,2.83
2023-05-18T12:21:27.998Z,3.03
2023-05-18T12:22:30.172Z,2.60
2023-05-18T12:23:37.378Z,2.78
2023-05-18T12:24:40.916Z,2.50
2023-05-18T12:25:43.165Z,3.03
2023-05-18T12:26:46.722Z,2.67
2023-05-18T12:27:50.038Z,3.08
2023-05-18T12:28:53.255Z,2.08
2023-05-18T12:29:55.527Z,2.50
2023-05-18T12:30:58.632Z,2.88
2023-05-18T12:32:06.073Z,2.33
2023-05-18T12:33:08.285Z,2.78
2023-05-18T12:34:11.493Z,2.60
2023-05-18T12:35:13.596Z,2.60
2023-05-18T12:36:15.760Z,2.50
2023-05-18T12:37:17.984Z,2.65
2023-05-18T12:38:21.067Z,2.65
2023-05-18T12:39:27.110Z,2.90
2023-05-18T12:40:48.892Z,2.63
2023-05-18T12:41:51.515Z,2.25
2023-05-18T12:42:54.594Z,2.75
2023-05-18T12:43:58.318Z,2.60
2023-05-18T12:45:00.736Z,2.30
2023-05-18T12:46:04.507Z,2.72
2023-05-18T12:47:06.809Z,2.55
2023-05-18T12:48:11.057Z,2.60
2023-05-18T12:49:13.406Z,3.00
2023-05-18T12:50:15.722Z,2.90
2023-05-18T12:51:21.164Z,3.42
2023-05-18T12:52:23.308Z,2.33
2023-05-18T12:53:25.723Z,2.70
2023-05-18T12:54:29.924Z,2.85
2023-05-18T12:55:33.262Z,2.78
2023-05-18T12:57:02.303Z,2.67
2023-05-18T12:58:07.282Z,2.67
2023-05-18T12:59:09.547Z,2.70
2023-05-18T13:00:12.584Z,2.80
2023-05-18T13:01:14.819Z,2.55
2023-05-18T13:02:32.672Z,2.53
2023-05-18T13:03:35.215Z,3.05
2023-05-18T13:04:37.432Z,2.80
2023-05-18T13:05:41.836Z,2.45
2023-05-18T13:06:44.473Z,2.47
2023-05-18T13:07:46.778Z,2.92
2023-05-18T13:08:49.036Z,2.85
2023-05-18T13:09:51.228Z,2.42
2023-05-18T13:11:01.419Z,2.80
2023-05-18T13:12:12.436Z,2.67
2023-05-18T13:13:17.771Z,2.10
2023-05-18T13:14:22.257Z,2.63
2023-05-18T13:15:24.519Z,2.42
2023-05-18T13:16:27.566Z,2.42
2023-05-18T13:17:29.792Z,2.83
2023-05-18T13:18:32.198Z,2.30
2023-05-18T13:19:37.197Z,2.78
2023-05-18T13:20:50.769Z,2.90
2023-05-18T13:21:56.928Z,2.70
2023-05-18T13:23:03.728Z,2.90
2023-05-18T13:24:06.135Z,2.60
2023-05-18T13:25:08.829Z,2.72
2023-05-18T13:26:11.140Z,2.47
2023-05-18T13:27:13.291Z,2.95
2023-05-18T13:28:17.550Z,2.20
2023-05-18T13:29:19.663Z,3.05
2023-05-18T13:30:22.832Z,3.00
2023-05-18T13:31:25.360Z,2.90
2023-05-18T13:32:27.687Z,2.78
2023-05-18T13:33:29.868Z,2.40
2023-05-18T13:34:32.074Z,2.58
2023-05-18T13:35:38.458Z,2.92
2023-05-18T13:36:41.369Z,2.83
2023-05-18T13:37:43.746Z,2.83
2023-05-18T13:38:46.052Z,2.58
2023-05-18T13:39:48.329Z,2.65
2023-05-18T13:40:50.516Z,2.28
2023-05-18T13:41:52.657Z,2.60
2023-05-18T13:42:54.801Z,2.72
2023-05-18T13:43:56.961Z,2.72
2023-05-18T13:44:59.123Z,2.72
2023-05-18T13:46:01.364Z,2.70
2023-05-18T13:47:03.717Z,2.42
2023-05-18T13:48:09.513Z,2.38
2023-05-18T13:49:13.321Z,2.65
2023-05-18T13:50:15.510Z,2.83
2023-05-18T13:51:17.773Z,2.70
2023-05-18T13:52:20.047Z,2.50
2023-05-18T13:53:22.585Z,2.60
2023-05-18T13:54:24.752Z,2.67
2023-05-18T13:55:26.939Z,2.83
2023-05-18T13:56:29.134Z,2.80
2023-05-18T13:57:32.182Z,2.67
2023-05-18T13:58:36.017Z,2.95
2023-05-18T13:59:38.215Z,2.10
2023-05-18T14:00:40.370Z,2.95
2023-05-18T14:01:44.727Z,2.60
2023-05-18T14:02:47.933Z,2.42
2023-05-18T14:03:50.269Z,2.72
2023-05-18T14:04:52.982Z,2.53
2023-05-18T14:05:55.155Z,2.70
2023-05-18T14:06:58.299Z,2.42
2023-05-18T14:08:01.481Z,2.72
2023-05-18T14:09:03.696Z,3.38
2023-05-18T14:10:06.750Z,2.90
2023-05-18T14:11:08.974Z,2.53
2023-05-18T14:12:12.828Z,2.35
2023-05-18T14:13:14.974Z,2.83
2023-05-18T14:14:17.155Z,2.60
2023-05-18T14:15:19.321Z,2.47
2023-05-18T14:16:21.560Z,2.80
2023-05-18T14:17:23.888Z,2.50
2023-05-18T14:18:26.092Z,2.70
2023-05-18T14:19:28.377Z,2.75
2023-05-18T14:20:31.047Z,2.88
2023-05-18T14:21:33.426Z,3.03
2023-05-18T14:22:35.617Z,2.65
2023-05-18T14:23:37.776Z,2.63
2023-05-18T14:24:40.042Z,2.78
2023-05-18T14:25:43.693Z,2.45